Terminal Aerodrome Forecast
Issued by NWS

Home | Current Version | Previous Version | Graphics & Text | Print | Product List | Glossary On
Versions: 1 2 3 4 5 6 7 8 9 10 11 12 13 14 15 16 17 18 19 20 21 22
000
FTUS43 KGRB 150546
TAFAUW
TAF
KAUW 150546Z 1506/1606 17009KT 2SM -RADZ BR OVC003
      TEMPO 1506/1510 1SM -RA BR
     FM151000 18006KT 1 1/2SM -RADZ BR OVC003
     FM151200 23006KT 3/4SM -RADZ BR OVC003
     FM151500 29008KT 2SM BR OVC003
     FM151700 29010KT 5SM BR BKN008
     FM151800 29010G22KT P6SM BKN012
     FM160000 30014G20KT P6SM -SN BKN020=

USA.gov is the U.S. government's official web portal to all federal, state and local government web resources and services.